Time;durP1;ratioP1;P1;durP2;ratioP2;P2;SDS_P1;SDS_P2;PMS_P1;PMS_P2;Temp;Humidity;BMP_temperature;BMP_pressure;BME280_temperature;BME280_humidity;BME280_pressure;Samples;Min_cycle;Max_cycle;Signal;HPM_P1;HPM_P2
2022/06/01 00:00:08;;;;;;;;;;;;;;;19.89;48.43;101265.56;7282811;19;154270;-55
2022/06/01 00:02:36;;;;;;;;;;;;;;;19.89;48.73;101261.94;7281672;19;152459;-55
2022/06/01 00:05:04;;;;;;;;;;;;;;;19.87;48.74;101259.41;7281302;19;153516;-58
2022/06/01 00:07:30;;;;;;;;;;;;;;;19.85;48.82;101264.47;7283475;19;154252;-56
2022/06/01 00:09:57;;;;;;;;;;;;;;;19.84;48.39;101268.44;7291845;19;151973;-55
2022/06/01 00:12:24;;;;;;;;;;;;;;;19.85;48.66;101263.66;7280748;19;154030;-56
2022/06/01 00:14:51;;;;;;;;;;;;;;;19.83;48.71;101263.94;7281833;19;152114;-56
2022/06/01 00:17:20;;;;;;;;;;;;;;;19.82;48.48;101264.22;7280671;19;153367;-56
2022/06/01 00:19:47;;;;;;;;;;;;;;;19.80;48.74;101264.53;7280873;19;153163;-56
2022/06/01 00:22:17;;;;;;;;;;;;;;;19.80;48.48;101263.69;7280792;19;152195;-56
2022/06/01 00:24:44;;;;;;;;;;;;;;;19.79;48.54;101268.47;7279680;19;153403;-56
2022/06/01 00:27:12;;;;;;;;;;;;;;;19.79;48.73;101268.47;7280810;19;153962;-55
2022/06/01 00:29:39;;;;;;;;;;;;;;;19.78;48.76;101268.75;7281159;19;152379;-55
2022/06/01 00:32:08;;;;;;;;;;;;;;;19.76;48.30;101274.66;7287191;19;153738;-56
2022/06/01 00:34:34;;;;;;;;;;;;;;;19.77;48.41;101272.69;7281255;19;152852;-56
2022/06/01 00:37:01;;;;;;;;;;;;;;;19.76;48.33;101271.03;7283314;19;152245;-55
2022/06/01 00:39:28;;;;;;;;;;;;;;;19.76;48.25;101269.03;7279918;19;154201;-56
2022/06/01 00:41:56;;;;;;;;;;;;;;;19.74;48.44;101259.28;7283055;19;151990;-56
2022/06/01 00:44:23;;;;;;;;;;;;;;;19.78;48.49;101254.75;7281336;19;153551;-57
2022/06/01 00:46:51;;;;;;;;;;;;;;;19.74;48.30;101251.69;7280840;19;153874;-56
2022/06/01 00:49:20;;;;;;;;;;;;;;;19.73;48.60;101258.44;7281218;19;151711;-54
2022/06/01 00:51:47;;;;;;;;;;;;;;;19.73;48.38;101261.22;7280804;19;153257;-55
2022/06/01 00:54:14;;;;;;;;;;;;;;;19.71;48.80;101255.09;7288421;19;154797;-56
2022/06/01 00:56:51;;;;;;;;;;;;;;;19.70;48.60;101247.81;7279914;19;154052;-56
2022/06/01 00:59:19;;;;;;;;;;;;;;;19.70;48.83;101253.41;7277021;19;153806;-55
2022/06/01 01:01:48;;;;;;;;;;;;;;;19.69;48.73;101262.13;7282536;19;152097;-57
2022/06/01 01:04:15;;;;;;;;;;;;;;;19.68;48.56;101255.66;7280634;19;153632;-55
2022/06/01 01:06:43;;;;;;;;;;;;;;;19.68;48.61;101258.47;7276355;19;154377;-56
2022/06/01 01:09:11;;;;;;;;;;;;;;;19.67;48.67;101256.78;7282818;19;153064;-57
2022/06/01 01:11:37;;;;;;;;;;;;;;;19.66;48.79;101255.16;7280748;19;155717;-56
2022/06/01 01:14:06;;;;;;;;;;;;;;;19.67;48.55;101251.19;7278172;19;153325;-56
2022/06/01 01:16:34;;;;;;;;;;;;;;;19.66;48.73;101255.16;7288425;19;151997;-56
2022/06/01 01:19:02;;;;;;;;;;;;;;;19.65;48.70;101249.81;7280239;19;153864;-56
2022/06/01 01:21:49;;;;;;;;;;;;;;;19.64;48.72;101250.94;7280095;19;152521;-55
2022/06/01 01:24:18;;;;;;;;;;;;;;;19.62;48.77;101251.25;7278622;19;152636;-56
2022/06/01 01:26:50;;;;;;;;;;;;;;;19.63;48.80;101246.47;7278199;19;153108;-55
2022/06/01 01:29:31;;;;;;;;;;;;;;;19.62;48.63;101254.06;7280458;19;155270;-56
2022/06/01 01:31:58;;;;;;;;;;;;;;;19.61;49.09;101259.97;7283511;19;153395;-56
2022/06/01 01:34:25;;;;;;;;;;;;;;;19.60;49.13;101263.88;7278247;19;153579;-56
2022/06/01 01:36:55;;;;;;;;;;;;;;;19.59;49.05;101265.84;7279370;19;152679;-55
2022/06/01 01:39:22;;;;;;;;;;;;;;;19.58;48.88;101260.56;7285002;19;153192;-55
2022/06/01 01:41:50;;;;;;;;;;;;;;;19.58;49.19;101258.56;7281065;19;152382;-56
2022/06/01 01:44:16;;;;;;;;;;;;;;;19.58;48.75;101260.56;7277421;19;152990;-55
2022/06/01 01:46:47;;;;;;;;;;;;;;;19.58;49.03;101268.97;7279327;19;152984;-55
2022/06/01 01:49:15;;;;;;;;;;;;;;;19.56;49.15;101269.25;7280266;19;152129;-56
2022/06/01 01:51:42;;;;;;;;;;;;;;;19.56;49.23;101272.06;7280504;19;153584;-56
2022/06/01 01:54:29;;;;;;;;;;;;;;;19.56;48.78;101274.00;7279558;19;153412;-56
2022/06/01 01:57:05;;;;;;;;;;;;;;;19.55;48.96;101267.56;7279263;19;152252;-55
2022/06/01 02:00:04;;;;;;;;;;;;;;;19.71;48.75;101271.94;7275291;19;153399;-56
2022/06/01 02:02:42;;;;;;;;;;;;;;;19.70;48.71;101266.59;7279217;19;152432;-56
2022/06/01 02:08:10;;;;;;;;;;;;;;;19.61;49.31;101269.22;7277119;19;154424;-56
2022/06/01 02:13:24;;;;;;;;;;;;;;;19.57;49.28;101270.09;7281309;19;153217;-56
2022/06/01 02:15:52;;;;;;;;;;;;;;;19.58;49.22;101266.97;7279194;19;153783;-56
2022/06/01 02:18:24;;;;;;;;;;;;;;;19.56;49.50;101266.44;7278890;19;152193;-55
2022/06/01 02:20:57;;;;;;;;;;;;;;;19.54;49.52;101266.72;7279857;19;156222;-55
2022/06/01 02:23:24;;;;;;;;;;;;;;;19.53;49.72;101265.06;7286433;19;153290;-56
2022/06/01 02:25:53;;;;;;;;;;;;;;;19.53;49.55;101261.44;7277396;19;153529;-55
2022/06/01 02:28:20;;;;;;;;;;;;;;;19.52;49.45;101265.38;7278566;19;153624;-56
2022/06/01 02:30:47;;;;;;;;;;;;;;;19.51;49.58;101264.53;7277467;19;152547;-57
2022/06/01 02:33:19;;;;;;;;;;;;;;;19.51;49.51;101258.09;7278279;19;152692;-56
2022/06/01 02:35:50;;;;;;;;;;;;;;;19.51;49.87;101260.88;7275644;19;155483;-55
2022/06/01 02:38:37;;;;;;;;;;;;;;;19.50;49.64;101262.00;7279747;19;152869;-55
2022/06/01 02:41:04;;;;;;;;;;;;;;;19.50;49.60;101264.81;7279422;19;153406;-56
2022/06/01 02:43:31;;;;;;;;;;;;;;;19.48;49.96;101255.88;7276917;19;153970;-56
2022/06/01 02:45:58;;;;;;;;;;;;;;;19.48;50.07;101256.72;7283946;19;152673;-55
2022/06/01 02:48:25;;;;;;;;;;;;;;;19.47;49.98;101249.44;7274154;19;154002;-57
2022/06/01 02:50:52;;;;;;;;;;;;;;;19.47;50.36;101254.19;7276738;19;152667;-54
2022/06/01 02:53:19;;;;;;;;;;;;;;;19.48;49.92;101253.91;7277577;19;153774;-57
2022/06/01 02:55:46;;;;;;;;;;;;;;;19.47;50.12;101259.81;7274875;19;153263;-56
2022/06/01 02:58:13;;;;;;;;;;;;;;;19.46;50.07;101256.16;7278864;19;152643;-55
2022/06/01 03:00:40;;;;;;;;;;;;;;;19.45;50.25;101264.84;7272744;19;153522;-55
2022/06/01 03:03:10;;;;;;;;;;;;;;;19.45;50.42;101262.88;7274385;19;154074;-56
2022/06/01 03:05:40;;;;;;;;;;;;;;;19.45;50.54;101259.25;7274520;19;153005;-55
2022/06/01 03:08:07;;;;;;;;;;;;;;;19.44;50.30;101255.59;7283674;19;154009;-56
2022/06/01 03:10:34;;;;;;;;;;;;;;;19.44;50.31;101255.59;7278612;19;152654;-55
2022/06/01 03:13:04;;;;;;;;;;;;;;;19.43;50.37;101259.56;7277374;19;153405;-57
2022/06/01 03:15:30;;;;;;;;;;;;;;;19.43;50.76;101262.38;7278289;19;153163;-55
2022/06/01 03:17:57;;;;;;;;;;;;;;;19.43;50.52;101267.09;7276129;19;152368;-55
2022/06/01 03:20:27;;;;;;;;;;;;;;;19.42;50.64;101266.25;7274104;19;153338;-56
2022/06/01 03:22:56;;;;;;;;;;;;;;;19.41;50.66;101263.75;7276194;19;153528;-56
2022/06/01 03:25:24;;;;;;;;;;;;;;;19.42;50.72;101269.06;7276747;19;152040;-57
2022/06/01 03:27:51;;;;;;;;;;;;;;;19.42;50.65;101265.41;7277066;19;152738;-56
2022/06/01 03:30:18;;;;;;;;;;;;;;;19.40;50.82;101265.69;7282030;19;153406;-56
2022/06/01 03:32:46;;;;;;;;;;;;;;;19.40;50.91;101268.50;7277249;19;153931;-55
2022/06/01 03:35:17;;;;;;;;;;;;;;;19.40;51.06;101276.06;7276680;19;154169;-56
2022/06/01 03:37:44;;;;;;;;;;;;;;;19.39;51.03;101266.00;7272138;19;152139;-55
2022/06/01 03:40:12;;;;;;;;;;;;;;;19.39;50.89;101264.06;7276835;19;153523;-56
2022/06/01 03:42:38;;;;;;;;;;;;;;;19.39;51.11;101257.59;7275400;19;154065;-56
2022/06/01 03:47:51;;;;;;;;;;;;;;;19.38;51.05;101264.34;7276849;19;153241;-57
2022/06/01 03:50:18;;;;;;;;;;;;;;;19.38;50.91;101264.34;7273808;19;154021;-56
2022/06/01 03:52:45;;;;;;;;;;;;;;;19.36;50.93;101261.81;7284851;19;152283;-56
2022/06/01 03:55:14;;;;;;;;;;;;;;;19.36;50.91;101266.56;7274159;19;153277;-56
2022/06/01 03:57:41;;;;;;;;;;;;;;;19.36;51.38;101260.97;7275527;19;151683;-56
2022/06/01 04:00:10;;;;;;;;;;;;;;;19.35;51.33;101262.94;7276378;19;153797;-55
2022/06/01 04:02:37;;;;;;;;;;;;;;;19.36;51.44;101263.78;7279242;19;153611;-57
2022/06/01 04:05:10;;;;;;;;;;;;;;;19.34;51.28;101261.28;7283231;19;152165;-55
2022/06/01 04:07:37;;;;;;;;;;;;;;;19.34;51.46;101261.28;7284169;19;153484;-56
2022/06/01 04:10:04;;;;;;;;;;;;;;;19.35;51.10;101270.53;7284453;19;153902;-57
2022/06/01 04:12:31;;;;;;;;;;;;;;;19.33;51.38;101262.41;7292222;19;151830;-56
2022/06/01 04:14:58;;;;;;;;;;;;;;;19.32;51.28;101269.13;7281414;19;153981;-55
2022/06/01 04:17:25;;;;;;;;;;;;;;;19.33;51.15;101269.97;7278713;19;154880;-54
2022/06/01 04:19:52;;;;;;;;;;;;;;;19.32;51.49;101277.53;7283693;19;153401;-56
2022/06/01 04:22:19;;;;;;;;;;;;;;;19.31;51.35;101280.63;7282634;19;153283;-56
2022/06/01 04:24:49;;;;;;;;;;;;;;;19.32;51.54;101279.50;7281750;19;153428;-56
2022/06/01 04:27:17;;;;;;;;;;;;;;;19.31;51.59;101277.81;7279081;19;154472;-55
2022/06/01 04:29:44;;;;;;;;;;;;;;;19.31;51.47;101283.44;7279270;19;154268;-55
2022/06/01 04:32:12;;;;;;;;;;;;;;;19.30;51.52;101281.78;7283032;19;152145;-56
2022/06/01 04:34:40;;;;;;;;;;;;;;;19.30;51.69;101281.78;7288203;19;152634;-56
2022/06/01 04:37:09;;;;;;;;;;;;;;;19.27;51.76;101271.97;7280941;19;152222;-55
2022/06/01 04:39:35;;;;;;;;;;;;;;;19.29;51.67;101283.75;7283309;19;153319;-54
2022/06/01 04:42:02;;;;;;;;;;;;;;;19.27;51.36;101282.34;7279589;19;153808;-56
2022/06/01 04:44:29;;;;;;;;;;;;;;;19.26;51.36;101284.31;7283621;19;151860;-55
2022/06/01 04:46:56;;;;;;;;;;;;;;;19.27;51.56;101285.13;7280603;19;153331;-56
2022/06/01 04:49:23;;;;;;;;;;;;;;;19.27;51.31;101287.94;7280499;19;153253;-56
2022/06/01 04:51:49;;;;;;;;;;;;;;;19.27;51.63;101285.97;7281897;19;152032;-55
2022/06/01 04:54:17;;;;;;;;;;;;;;;19.24;51.65;101283.78;7282699;19;153985;-56
2022/06/01 04:56:45;;;;;;;;;;;;;;;19.25;51.44;101285.44;7288350;19;153349;-55
2022/06/01 04:59:11;;;;;;;;;;;;;;;19.25;51.62;101279.84;7281884;19;153149;-56
2022/06/01 05:01:38;;;;;;;;;;;;;;;19.23;51.85;101287.69;7275494;19;154010;-55
2022/06/01 05:04:13;;;;;;;;;;;;;;;19.23;51.74;101281.25;7279010;19;152165;-56
2022/06/01 05:06:40;;;;;;;;;;;;;;;19.23;51.70;101276.50;7280048;19;153189;-55
2022/06/01 05:09:07;;;;;;;;;;;;;;;19.23;51.69;101278.44;7280454;19;154832;-56
2022/06/01 05:11:34;;;;;;;;;;;;;;;19.27;51.62;101279.53;7279360;19;152149;-56
2022/06/01 05:14:01;;;;;;;;;;;;;;;19.30;51.98;101279.81;7282097;19;154254;-55
2022/06/01 05:16:28;;;;;;;;;;;;;;;19.35;52.01;101278.94;7276687;19;153243;-57
2022/06/01 05:18:55;;;;;;;;;;;;;;;19.38;52.71;101286.75;7287868;19;152315;-55
2022/06/01 05:21:22;;;;;;;;;;;;;;;19.43;52.41;101283.91;7281469;19;153647;-54
2022/06/01 05:23:49;;;;;;;;;;;;;;;19.48;52.55;101284.75;7283379;19;152274;-56
2022/06/01 05:26:16;;;;;;;;;;;;;;;19.54;52.81;101293.91;7279389;19;153378;-56
2022/06/01 05:28:42;;;;;;;;;;;;;;;19.59;52.83;101291.06;7281416;19;153971;-56
2022/06/01 05:31:10;;;;;;;;;;;;;;;19.66;52.82;101300.00;7281043;19;152642;-55
2022/06/01 05:33:38;;;;;;;;;;;;;;;19.74;53.42;101304.97;7281539;19;153312;-55
2022/06/01 05:36:05;;;;;;;;;;;;;;;19.82;53.25;101306.28;7280584;19;153228;-56
2022/06/01 05:38:32;;;;;;;;;;;;;;;19.88;52.96;101319.97;7280822;19;152213;-56
2022/06/01 05:41:00;;;;;;;;;;;;;;;19.96;52.62;101313.72;7288416;19;153504;-56
2022/06/01 05:43:27;;;;;;;;;;;;;;;20.04;53.03;101319.81;7281196;19;151551;-55
2022/06/01 05:45:54;;;;;;;;;;;;;;;20.13;52.64;101320.84;7279831;19;152761;-56
2022/06/01 05:48:22;;;;;;;;;;;;;;;20.18;52.34;101315.16;7279035;19;154011;-56
2022/06/01 05:50:53;;;;;;;;;;;;;;;20.24;52.05;101314.00;7280935;19;153083;-56
2022/06/01 05:53:20;;;;;;;;;;;;;;;20.33;52.15;101320.66;7279848;19;152689;-56
2022/06/01 05:55:46;;;;;;;;;;;;;;;20.39;52.10;101313.84;7278525;19;153233;-54
2022/06/01 05:58:15;;;;;;;;;;;;;;;20.45;51.82;101309.84;7280806;19;152253;-56
2022/06/01 06:00:42;;;;;;;;;;;;;;;20.52;51.81;101315.94;7279429;19;153720;-56
2022/06/01 06:03:10;;;;;;;;;;;;;;;20.59;51.18;101319.22;7283041;19;154249;-57
2022/06/01 06:08:22;;;;;;;;;;;;;;;20.73;51.07;101322.13;7280732;19;153626;-56
2022/06/01 06:10:49;;;;;;;;;;;;;;;20.79;50.98;101323.75;7279499;19;151896;-55
2022/06/01 06:13:16;;;;;;;;;;;;;;;20.84;51.33;101321.69;7279654;19;153048;-55
2022/06/01 06:15:42;;;;;;;;;;;;;;;20.92;51.03;101330.59;7276825;19;154540;-56
2022/06/01 06:18:13;;;;;;;;;;;;;;;20.97;50.80;101319.28;7279903;19;152041;-56
2022/06/01 06:20:43;;;;;;;;;;;;;;;21.04;50.71;101325.34;7278105;19;152697;-56
2022/06/01 06:23:11;;;;;;;;;;;;;;;21.10;50.39;101329.75;7281532;19;154149;-56
2022/06/01 06:25:40;;;;;;;;;;;;;;;21.15;50.67;101316.50;7278281;19;153036;-55
2022/06/01 06:28:06;;;;;;;;;;;;;;;21.21;50.26;101322.91;7276687;19;153478;-57
2022/06/01 06:30:34;;;;;;;;;;;;;;;21.26;50.08;101332.06;7279342;19;151952;-56
2022/06/01 06:33:01;;;;;;;;;;;;;;;21.30;50.09;101333.13;7278125;19;153077;-55
2022/06/01 06:35:28;;;;;;;;;;;;;;;21.34;49.89;101336.19;7277441;19;153287;-56
2022/06/01 06:37:55;;;;;;;;;;;;;;;21.39;49.75;101340.91;7279322;19;151581;-56
2022/06/01 06:40:21;;;;;;;;;;;;;;;21.42;49.26;101345.91;7278021;19;153019;-56
2022/06/01 06:42:48;;;;;;;;;;;;;;;21.45;49.43;101342.47;7278204;19;153290;-56
2022/06/01 06:45:15;;;;;;;;;;;;;;;21.47;49.43;101349.47;7287387;19;152332;-56
2022/06/01 06:47:42;;;;;;;;;;;;;;;21.49;48.95;101352.78;7276382;19;154413;-55
2022/06/01 06:50:10;;;;;;;;;;;;;;;21.50;49.13;101354.47;7279179;19;151926;-56
2022/06/01 06:52:36;;;;;;;;;;;;;;;21.52;48.73;101359.81;7278563;19;153023;-56
2022/06/01 06:55:06;;;;;;;;;;;;;;;21.53;48.94;101359.47;7276929;19;153564;-56
2022/06/01 06:57:35;;;;;;;;;;;;;;;21.55;48.98;101362.84;7278650;19;152128;-57
2022/06/01 07:00:04;;;;;;;;;;;;;;;21.56;48.58;101363.66;7279225;19;153016;-56
2022/06/01 07:02:30;;;;;;;;;;;;;;;21.56;48.65;101367.31;7276100;19;153239;-55
2022/06/01 07:04:57;;;;;;;;;;;;;;;21.56;48.58;101374.91;7274245;19;152006;-55
2022/06/01 07:07:24;;;;;;;;;;;;;;;21.58;48.75;101378.25;7283441;19;153083;-56
2022/06/01 07:09:51;;;;;;;;;;;;;;;21.57;48.76;101376.59;7278161;19;151938;-56
2022/06/01 07:12:18;;;;;;;;;;;;;;;21.56;48.70;101378.56;7277735;19;153680;-56
2022/06/01 07:14:46;;;;;;;;;;;;;;;21.57;48.80;101385.03;7277348;19;153852;-55
2022/06/01 07:17:15;;;;;;;;;;;;;;;21.57;48.59;101382.22;7278799;19;152035;-55
2022/06/01 07:19:42;;;;;;;;;;;;;;;21.55;48.56;101376.88;7276621;19;154365;-56
2022/06/01 07:22:08;;;;;;;;;;;;;;;21.56;48.47;101383.34;7277716;19;154646;-56
2022/06/01 07:24:35;;;;;;;;;;;;;;;21.55;48.76;101393.75;7277952;19;151734;-56
2022/06/01 07:27:02;;;;;;;;;;;;;;;21.54;48.77;101394.06;7276924;19;152681;-56
2022/06/01 07:29:29;;;;;;;;;;;;;;;21.54;48.50;101399.69;7283365;19;153179;-56
2022/06/01 07:31:55;;;;;;;;;;;;;;;21.52;48.86;101394.38;7278499;19;153025;-55
2022/06/01 07:34:23;;;;;;;;;;;;;;;21.52;48.96;101393.53;7280131;19;154234;-55
2022/06/01 07:36:49;;;;;;;;;;;;;;;21.53;48.69;101398.84;7285231;19;152573;-56
2022/06/01 07:44:49;;;;;;;;;;;;;;;21.49;48.63;101403.41;7283926;19;153107;-57
2022/06/01 07:47:16;;;;;;;;;;;;;;;21.48;48.87;101396.13;7283418;19;153473;-55
2022/06/01 07:50:03;;;;;;;;;;;;;;;21.48;48.67;101395.28;7281783;19;153501;-55
2022/06/01 07:52:50;;;;;;;;;;;;;;;21.47;49.06;101402.88;7288508;19;152049;-56
2022/06/01 07:55:17;;;;;;;;;;;;;;;21.47;48.84;101399.25;7281053;19;154155;-56
2022/06/01 07:57:44;;;;;;;;;;;;;;;21.44;49.04;101402.66;7283667;19;154800;-56
2022/06/01 08:00:13;;;;;;;;;;;;;;;21.44;49.19;101399.84;7281458;19;153291;-56
2022/06/01 08:02:40;;;;;;;;;;;;;;;21.43;49.25;101398.19;7280007;19;155312;-55
2022/06/01 08:05:07;;;;;;;;;;;;;;;21.42;48.77;101397.34;7280768;19;152974;-56
2022/06/01 08:07:34;;;;;;;;;;;;;;;21.41;49.03;101400.44;7282548;19;152659;-55
2022/06/01 08:10:02;;;;;;;;;;;;;;;21.40;49.25;101407.19;7282104;19;155099;-56
2022/06/01 08:15:17;;;;;;;;;;;;;;;21.38;49.05;101412.31;7289092;19;153257;-54
2022/06/01 08:17:55;;;;;;;;;;;;;;;21.35;49.55;101405.28;7283465;19;152441;-56
2022/06/01 08:20:21;;;;;;;;;;;;;;;21.34;49.33;101405.63;7281932;19;156664;-56
2022/06/01 08:22:48;;;;;;;;;;;;;;;21.32;49.21;101405.91;7280615;19;153358;-56
2022/06/01 08:25:18;;;;;;;;;;;;;;;21.30;49.14;101408.19;7283120;19;151737;-58
2022/06/01 08:27:46;;;;;;;;;;;;;;;21.26;49.06;101407.09;7281641;19;152690;-56
2022/06/01 08:30:14;;;;;;;;;;;;;;;21.30;48.86;101408.19;7279514;19;154295;-56
2022/06/01 08:32:41;;;;;;;;;;;;;;;21.27;49.16;101394.72;7282955;19;152355;-56
2022/06/01 08:35:09;;;;;;;;;;;;;;;21.27;49.19;101408.78;7289321;19;153385;-56
2022/06/01 08:37:36;;;;;;;;;;;;;;;21.24;49.30;101404.63;7282814;19;152133;-56
2022/06/01 08:40:05;;;;;;;;;;;;;;;21.22;49.22;101415.31;7280557;19;153434;-56
2022/06/01 08:42:32;;;;;;;;;;;;;;;21.21;49.48;101408.00;7280521;19;153930;-56
2022/06/01 08:45:05;;;;;;;;;;;;;;;21.19;49.64;101412.28;7276478;19;152223;-55
2022/06/01 08:47:33;;;;;;;;;;;;;;;21.18;49.60;101417.06;7278358;19;153387;-56
2022/06/01 08:50:00;;;;;;;;;;;;;;;21.20;49.42;101422.38;7281612;19;154548;-56
2022/06/01 08:52:28;;;;;;;;;;;;;;;21.21;49.70;101419.25;7283245;19;152011;-55
2022/06/01 08:54:55;;;;;;;;;;;;;;;21.18;49.79;101413.41;7282866;19;153352;-55
2022/06/01 08:57:25;;;;;;;;;;;;;;;21.17;49.59;101417.34;7286785;19;154021;-55
2022/06/01 09:00:05;;;;;;;;;;;;;;;21.15;49.95;101420.47;7281054;19;152753;-56
2022/06/01 09:02:33;;;;;;;;;;;;;;;21.15;49.71;101411.22;7278794;19;154253;-57
2022/06/01 09:04:59;;;;;;;;;;;;;;;21.13;50.14;101414.31;7281184;19;152369;-56
2022/06/01 09:07:29;;;;;;;;;;;;;;;21.13;50.11;101421.91;7276865;19;152664;-56
2022/06/01 09:10:17;;;;;;;;;;;;;;;21.14;50.25;101417.97;7281557;19;153266;-56
2022/06/01 09:12:55;;;;;;;;;;;;;;;21.11;50.29;101419.38;7282579;19;151725;-54
2022/06/01 09:15:24;;;;;;;;;;;;;;;21.11;50.53;101412.94;7282723;19;152964;-56
2022/06/01 09:17:51;;;;;;;;;;;;;;;21.24;49.12;101424.28;7280714;19;153386;-55
2022/06/01 09:23:08;;;;;;;;;;;;;;;20.76;44.92;101429.06;7278163;19;154299;-56
2022/06/01 09:25:35;;;;;;;;;;;;;;;20.69;44.34;101427.75;7277127;19;152177;-57
2022/06/01 09:28:16;;;;;;;;;;;;;;;20.62;43.97;101425.31;7278277;19;153060;-57
2022/06/01 09:30:44;;;;;;;;;;;;;;;20.63;43.82;101432.59;7278172;19;153371;-56
2022/06/01 09:33:31;;;;;;;;;;;;;;;20.54;42.99;101434.38;7279851;19;152314;-56
2022/06/01 09:36:06;;;;;;;;;;;;;;;20.41;42.87;101435.91;7279747;19;152737;-56
2022/06/01 09:38:36;;;;;;;;;;;;;;;20.32;43.01;101436.84;7275887;19;152367;-56
2022/06/01 09:41:08;;;;;;;;;;;;;;;20.26;44.08;101427.59;7279855;19;152448;-57
2022/06/01 09:43:37;;;;;;;;;;;;;;;20.28;44.34;101433.75;7285607;19;153003;-56
2022/06/01 09:46:04;;;;;;;;;;;;;;;20.29;44.45;101432.63;7279743;19;153233;-55
2022/06/01 09:48:41;;;;;;;;;;;;;;;20.25;44.62;101439.13;7276406;19;153617;-56
2022/06/01 09:51:23;;;;;;;;;;;;;;;20.10;44.08;101442.91;7276985;19;153455;-56
2022/06/01 09:53:53;;;;;;;;;;;;;;;20.02;43.57;101445.50;7271898;19;152391;-56
2022/06/01 09:56:32;;;;;;;;;;;;;;;19.91;44.02;101441.94;7278815;19;153812;-56
2022/06/01 10:07:27;;;;;;;;;;;;;;;19.62;44.21;101441.88;7280080;19;153205;-58
2022/06/01 10:09:55;;;;;;;;;;;;;;;19.62;43.90;101449.44;7279191;19;153164;-56
2022/06/01 10:12:24;;;;;;;;;;;;;;;19.53;44.26;101447.22;7278521;19;154745;-56
2022/06/01 10:14:53;;;;;;;;;;;;;;;19.46;44.48;101454.28;7278860;19;152261;-57
2022/06/01 10:17:28;;;;;;;;;;;;;;;19.43;44.46;101461.31;7275852;19;152733;-56
2022/06/01 10:20:14;;;;;;;;;;;;;;;19.42;44.65;101462.41;7276286;19;153932;-56
2022/06/01 10:23:03;;;;;;;;;;;;;;;19.30;44.77;101459.13;7276783;19;152187;-56
2022/06/01 10:25:47;;;;;;;;;;;;;;;19.27;44.45;101467.25;7275986;19;153763;-55
2022/06/01 10:28:30;;;;;;;;;;;;;;;19.22;45.20;101467.25;7274644;19;153548;-55
2022/06/01 10:31:25;;;;;;;;;;;;;;;19.16;45.04;101474.88;7282069;19;152275;-56
2022/06/01 10:34:13;;;;;;;;;;;;;;;18.99;46.05;101480.78;7274162;19;153453;-54
2022/06/01 10:36:45;;;;;;;;;;;;;;;19.03;45.64;101481.91;7274664;19;151945;-57
2022/06/01 10:39:14;;;;;;;;;;;;;;;18.97;45.65;101485.84;7277921;19;152993;-56
2022/06/01 10:41:47;;;;;;;;;;;;;;;18.88;46.12;101487.56;7273587;19;153483;-55
2022/06/01 10:44:25;;;;;;;;;;;;;;;18.81;46.50;101487.00;7278143;19;152888;-57
2022/06/01 10:46:51;;;;;;;;;;;;;;;18.75;47.15;101482.56;7277691;19;153254;-56
2022/06/01 10:49:43;;;;;;;;;;;;;;;18.73;46.83;101484.78;7272253;19;153321;-55
2022/06/01 10:52:29;;;;;;;;;;;;;;;18.74;48.54;101486.47;7286026;19;152310;-56
2022/06/01 10:55:10;;;;;;;;;;;;;;;18.69;48.81;101483.69;7274315;19;154067;-57
2022/06/01 10:57:39;;;;;;;;;;;;;;;18.72;49.60;101487.88;7277263;19;151984;-56
2022/06/01 11:00:08;;;;;;;;;;;;;;;18.69;49.81;101483.69;7277442;19;152803;-55
2022/06/01 11:02:54;;;;;;;;;;;;;;;18.70;49.70;101482.56;7275399;19;153003;-56
2022/06/01 11:05:33;;;;;;;;;;;;;;;18.69;49.14;101486.47;7277948;19;151923;-56
2022/06/01 11:08:07;;;;;;;;;;;;;;;18.60;49.61;101477.81;7272441;19;153411;-56
2022/06/01 11:10:40;;;;;;;;;;;;;;;18.59;50.04;101478.94;7274936;19;153151;-57
2022/06/01 11:13:13;;;;;;;;;;;;;;;18.57;49.97;101483.16;7274957;19;154153;-56
2022/06/01 11:15:49;;;;;;;;;;;;;;;18.60;50.41;101479.78;7282135;19;153059;-57
2022/06/01 11:18:15;;;;;;;;;;;;;;;18.62;50.63;101475.56;7275835;19;151868;-56
2022/06/01 11:20:42;;;;;;;;;;;;;;;18.70;50.08;101490.13;7275754;19;157246;-58
2022/06/01 11:23:09;;;;;;;;;;;;;;;18.71;49.96;101483.41;7275112;19;154862;-56
2022/06/01 11:25:36;;;;;;;;;;;;;;;18.63;49.15;101473.59;7278126;19;151810;-56
2022/06/01 11:28:16;;;;;;;;;;;;;;;18.69;49.67;101483.69;7276958;19;152976;-56
2022/06/01 11:30:48;;;;;;;;;;;;;;;18.67;48.59;101483.09;7273642;19;153605;-57
2022/06/01 11:33:34;;;;;;;;;;;;;;;18.65;49.44;101488.16;7268143;19;154370;-56
2022/06/01 11:36:10;;;;;;;;;;;;;;;18.56;49.55;101487.91;7272232;19;152929;-56
2022/06/01 11:38:40;;;;;;;;;;;;;;;18.76;48.88;101500.19;7280907;19;154029;-57
2022/06/01 11:41:18;;;;;;;;;;;;;;;18.88;48.98;101495.13;7276262;19;153631;-56
2022/06/01 11:44:00;;;;;;;;;;;;;;;19.05;49.38;101506.81;7261249;19;157507;-58
2022/06/01 11:46:41;;;;;;;;;;;;;;;19.16;48.87;101494.47;7274045;19;151834;-56
2022/06/01 11:49:25;;;;;;;;;;;;;;;19.24;49.29;101493.03;7275795;19;153373;-55
2022/06/01 11:51:52;;;;;;;;;;;;;;;19.33;49.03;101494.13;7276629;19;153983;-56
2022/06/01 11:54:45;;;;;;;;;;;;;;;19.35;48.96;101487.09;7274620;19;152063;-56
2022/06/01 11:57:17;;;;;;;;;;;;;;;19.35;49.01;101489.88;7277186;19;153412;-56
2022/06/01 11:59:47;;;;;;;;;;;;;;;19.44;49.04;101493.00;7275163;19;155034;-58
2022/06/01 12:02:40;;;;;;;;;;;;;;;19.52;48.43;101489.56;7282465;19;151794;-57
2022/06/01 12:05:12;;;;;;;;;;;;;;;19.58;48.84;101484.78;7272371;19;155668;-56
2022/06/01 12:07:50;;;;;;;;;;;;;;;19.57;48.66;101489.56;7277002;19;152006;-57
2022/06/01 12:10:20;;;;;;;;;;;;;;;19.58;48.56;101482.78;7275335;19;153945;-56
2022/06/01 12:12:56;;;;;;;;;;;;;;;19.61;48.35;101487.84;7273934;19;152523;-56
2022/06/01 12:15:52;;;;;;;;;;;;;;;19.61;48.90;101487.00;7275359;19;151572;-55
2022/06/01 12:18:22;;;;;;;;;;;;;;;19.62;48.64;101486.72;7273531;19;153665;-56
2022/06/01 12:20:50;;;;;;;;;;;;;;;19.61;49.03;101487.00;7275920;19;154036;-55
2022/06/01 12:28:52;;;;;;;;;;;;;;;19.65;48.50;101494.53;7283169;19;151686;-57
2022/06/01 12:31:21;;;;;;;;;;;;;;;19.74;48.65;101500.38;7286358;19;152645;-57
2022/06/01 12:34:03;;;;;;;;;;;;;;;19.80;48.70;101494.47;7281559;19;154311;-57
2022/06/01 12:36:35;;;;;;;;;;;;;;;19.88;48.65;101495.81;7285134;19;152082;-56
2022/06/01 12:39:13;;;;;;;;;;;;;;;19.91;48.51;101496.06;7285486;19;152944;-57
2022/06/01 12:41:40;;;;;;;;;;;;;;;19.96;48.92;101493.22;7283659;19;154406;-57
2022/06/01 12:44:10;;;;;;;;;;;;;;;20.02;48.76;101493.19;7286960;19;152021;-56
2022/06/01 12:46:48;;;;;;;;;;;;;;;20.05;48.49;101501.00;7288171;19;152644;-56
2022/06/01 12:49:24;;;;;;;;;;;;;;;20.12;48.36;101495.91;7293334;19;152382;-56
2022/06/01 12:51:54;;;;;;;;;;;;;;;20.21;47.99;101495.00;7287982;19;153427;-55
2022/06/01 12:54:53;;;;;;;;;;;;;;;20.29;47.72;101499.97;7284727;19;155109;-55
2022/06/01 12:57:23;;;;;;;;;;;;;;;20.35;47.88;101492.41;7282588;19;151866;-55
2022/06/01 12:59:55;;;;;;;;;;;;;;;20.37;47.96;101505.00;7284713;19;153337;-56
2022/06/01 13:02:23;;;;;;;;;;;;;;;20.40;47.58;101510.00;7283797;19;153602;-56
2022/06/01 13:04:54;;;;;;;;;;;;;;;20.44;47.28;101498.22;7284555;19;152399;-56
2022/06/01 13:07:29;;;;;;;;;;;;;;;20.48;47.05;101502.09;7284298;19;152748;-55
2022/06/01 13:10:06;;;;;;;;;;;;;;;20.51;47.46;101504.31;7288452;19;154280;-54
2022/06/01 13:12:33;;;;;;;;;;;;;;;20.52;47.29;101515.25;7284686;19;153306;-56
2022/06/01 13:15:22;;;;;;;;;;;;;;;20.55;47.10;101508.19;7282398;19;154071;-57
2022/06/01 13:17:51;;;;;;;;;;;;;;;20.54;47.11;101504.56;7283738;19;152003;-56
2022/06/01 13:20:21;;;;;;;;;;;;;;;20.56;47.23;101504.25;7283568;19;153503;-56